Time;durP1;ratioP1;P1;durP2;ratioP2;P2;SDS_P1;SDS_P2;PMS_P1;PMS_P2;Temp;Humidity;BMP_temperature;BMP_pressure;BME280_temperature;BME280_humidity;BME280_pressure;Samples;Min_cycle;Max_cycle;Signal;HPM_P1;HPM_P2
2022/10/16 00:01:45;;;;;;;0.93;0.93;;;14.90;99.90;;;-141.84;84.69;18749.03;5115390;28;20246;-75
2022/10/16 00:04:14;;;;;;;1.40;1.20;;;14.90;99.90;;;-141.84;85.08;18747.00;5115056;28;20794;-75
2022/10/16 00:06:42;;;;;;;1.90;1.15;;;14.70;99.90;;;-141.84;85.45;18728.72;5114931;28;20230;-75
2022/10/16 00:09:11;;;;;;;1.08;1.02;;;14.80;99.90;;;-141.84;85.87;18688.06;5114705;28;20227;-75
2022/10/16 00:11:41;;;;;;;1.30;1.00;;;14.70;99.90;;;-141.84;86.24;18675.88;5114634;28;20228;-73
2022/10/16 00:14:12;;;;;;;0.98;0.95;;;14.60;99.90;;;-141.84;86.69;18704.31;5114778;27;20709;-75
2022/10/16 00:16:40;;;;;;;3.30;1.30;;;14.60;99.90;;;-141.84;86.94;18688.06;5114381;28;20219;-74
2022/10/16 00:19:10;;;;;;;1.40;1.30;;;14.50;99.90;;;-141.84;87.23;18679.94;5114239;28;20230;-75
2022/10/16 00:21:38;;;;;;;1.40;1.30;;;14.50;99.90;;;-141.84;87.36;18700.25;5114121;28;20223;-75
2022/10/16 00:24:09;;;;;;;1.30;1.20;;;14.50;99.90;;;-141.84;87.65;18704.31;5114203;28;20253;-74
2022/10/16 00:26:40;;;;;;;2.10;1.50;;;14.50;99.90;;;-141.84;87.79;18675.88;5114503;28;20183;-73
2022/10/16 00:29:09;;;;;;;1.38;1.27;;;14.60;99.90;;;-141.84;87.33;18690.09;5115225;28;20190;-73
2022/10/16 00:31:37;;;;;;;1.63;1.30;;;14.60;99.90;;;-141.84;86.97;18661.66;5114625;28;20260;-74
2022/10/16 00:34:05;;;;;;;1.33;1.23;;;14.60;99.90;;;-141.84;86.46;18686.03;5114346;28;20231;-74
2022/10/16 00:36:33;;;;;;;1.73;1.38;;;14.80;99.90;;;-141.84;86.34;18712.47;5114236;28;20231;-74
2022/10/16 00:39:03;;;;;;;1.20;1.10;;;14.80;99.90;;;-141.84;85.94;18708.41;5114216;28;20787;-74
2022/10/16 00:41:32;;;;;;;1.55;1.10;;;14.90;99.90;;;-141.84;85.24;18738.88;5114139;28;20204;-74
2022/10/16 00:44:04;;;;;;;1.25;1.10;;;15.00;99.90;;;-141.84;84.76;18751.06;5114648;28;20202;-73
2022/10/16 00:46:39;;;;;;;1.50;1.13;;;15.10;99.90;;;-141.84;83.61;18761.22;5113773;28;20229;-73
2022/10/16 00:49:11;;;;;;;1.35;1.10;;;15.10;99.90;;;-141.84;82.46;18716.53;5114083;28;20226;-73
2022/10/16 00:51:43;;;;;;;1.30;1.20;;;15.20;99.90;;;-141.84;82.26;18736.84;5113961;28;20656;-75
2022/10/16 00:54:17;;;;;;;1.20;1.10;;;15.20;99.90;;;-141.84;82.69;18704.31;5113833;28;20714;-75
2022/10/16 00:56:47;;;;;;;1.23;1.13;;;15.20;99.90;;;-141.84;82.79;18728.72;5113030;28;20234;-75
2022/10/16 00:59:24;;;;;;;1.08;0.90;;;15.20;99.90;;;-141.84;82.35;18732.78;5114213;28;20753;-74
2022/10/16 01:01:53;;;;;;;1.00;1.00;;;15.20;99.90;;;-141.84;82.30;18767.31;5113832;28;20207;-74
2022/10/16 01:04:22;;;;;;;1.20;1.10;;;15.20;99.90;;;-141.84;82.86;18740.91;5113608;28;20249;-73
2022/10/16 01:07:02;;;;;;;1.30;1.20;;;15.20;99.90;;;-141.84;83.27;18722.63;5113360;28;20252;-76
2022/10/16 01:09:45;;;;;;;1.15;1.05;;;15.10;99.90;;;-141.84;83.71;18714.50;5113702;28;20227;-74
2022/10/16 01:12:22;;;;;;;1.30;1.20;;;15.10;99.90;;;-141.84;83.93;18696.19;5113253;28;20227;-75
2022/10/16 01:14:59;;;;;;;1.50;1.20;;;15.10;99.90;;;-141.84;84.21;18706.38;5113701;28;20218;-73
2022/10/16 01:17:37;;;;;;;1.67;1.00;;;15.00;99.90;;;-141.84;83.96;18724.66;5113341;28;20210;-74
2022/10/16 01:20:15;;;;;;;1.38;1.27;;;15.00;99.90;;;-141.84;84.12;18716.53;5113818;28;20179;-72
2022/10/16 01:23:08;;;;;;;1.13;1.10;;;15.10;99.90;;;-141.84;83.69;18673.84;5112919;27;20606;-75
2022/10/16 01:25:58;;;;;;;1.20;1.02;;;15.10;99.90;;;-141.84;84.28;18694.16;5112821;27;20276;-76
2022/10/16 01:28:37;;;;;;;1.20;1.10;;;15.00;99.90;;;-141.84;84.78;18677.91;5113250;28;20606;-75
2022/10/16 01:31:06;;;;;;;1.38;1.27;;;15.00;99.90;;;-141.84;84.61;18706.38;5112999;27;20838;-74
2022/10/16 01:33:43;;;;;;;2.35;1.10;;;15.10;99.90;;;-141.84;84.88;18661.66;5113340;28;20226;-74
2022/10/16 01:36:17;;;;;;;1.67;1.10;;;14.90;99.90;;;-141.84;85.17;18686.03;5112603;28;20230;-75
2022/10/16 01:38:52;;;;;;;2.03;1.10;;;15.00;99.90;;;-141.84;85.88;18623.06;5113230;28;20219;-73
2022/10/16 01:41:27;;;;;;;2.25;1.38;;;14.80;99.90;;;-141.84;86.04;18647.44;5113273;28;20525;-74
2022/10/16 01:44:04;;;;;;;2.50;1.40;;;14.80;99.90;;;-141.84;85.95;18647.44;5113364;28;20191;-75
2022/10/16 01:46:35;;;;;;;3.00;1.20;;;14.80;99.90;;;-141.84;86.29;18619.00;5113067;28;20643;-75
2022/10/16 01:49:04;;;;;;;1.50;1.23;;;14.80;99.90;;;-141.84;86.82;18627.13;5112876;28;20227;-74
2022/10/16 01:51:35;;;;;;;2.13;1.17;;;14.70;99.90;;;-141.84;87.11;18604.78;5112931;28;20223;-75
2022/10/16 01:54:08;;;;;;;1.30;1.20;;;14.70;99.90;;;-141.84;87.42;18600.72;5112593;28;20268;-75
2022/10/16 01:56:38;;;;;;;1.30;1.20;;;14.60;99.90;;;-141.84;87.85;18590.56;5112644;28;20207;-73
2022/10/16 01:59:14;;;;;;;1.20;1.10;;;14.50;99.90;;;-141.84;88.15;18629.16;5113244;28;20207;-74
2022/10/16 02:01:49;;;;;;;2.00;1.48;;;14.50;99.90;;;-141.84;88.68;18596.66;5112434;28;20219;-75
2022/10/16 02:04:27;;;;;;;1.50;1.40;;;14.50;99.90;;;-141.84;89.11;18578.38;5112566;28;20230;-75
2022/10/16 02:06:56;;;;;;;1.40;1.27;;;14.40;99.90;;;-141.84;89.46;18598.69;5112222;28;20227;-73
2022/10/16 02:09:24;;;;;;;1.40;1.30;;;14.30;99.90;;;-141.84;89.74;18513.34;5111209;28;20795;-75
2022/10/16 02:11:57;;;;;;;1.40;1.30;;;14.30;99.90;;;-141.84;89.98;18519.44;5112450;28;20248;-75
2022/10/16 02:14:28;;;;;;;1.60;1.50;;;14.20;99.90;;;-141.84;90.39;18515.38;5112369;28;20195;-76
2022/10/16 02:16:56;;;;;;;2.15;1.38;;;14.30;99.90;;;-141.84;90.71;18562.09;5112789;28;20215;-75
2022/10/16 02:19:24;;;;;;;1.50;1.40;;;14.30;99.90;;;-141.84;91.03;18509.28;5111971;28;20227;-74
2022/10/16 02:21:58;;;;;;;1.58;1.23;;;14.20;99.90;;;-141.84;91.16;18527.56;5112203;28;20292;-74
2022/10/16 02:24:35;;;;;;;1.40;1.30;;;14.30;99.90;;;-141.84;91.19;18535.69;5112226;28;20227;-76
2022/10/16 02:27:11;;;;;;;1.63;1.23;;;14.20;99.90;;;-141.84;91.35;18553.97;5112160;28;20223;-75
2022/10/16 02:29:48;;;;;;;2.60;1.25;;;14.20;99.90;;;-141.84;91.56;18486.94;5112238;28;20287;-75
2022/10/16 02:32:22;;;;;;;1.67;1.58;;;14.10;99.90;;;-141.84;91.67;18513.34;5112854;28;20188;-74
2022/10/16 02:34:52;;;;;;;1.98;1.52;;;14.20;99.90;;;-141.84;91.68;18497.09;5112404;28;20393;-73
2022/10/16 02:37:20;;;;;;;1.75;1.65;;;14.20;99.90;;;-141.84;91.76;18480.84;5111850;28;20268;-75
2022/10/16 02:39:49;;;;;;;1.50;1.40;;;14.20;99.90;;;-141.84;91.94;18503.19;5111766;28;20741;-73
2022/10/16 02:42:19;;;;;;;1.80;1.70;;;14.30;99.90;;;-141.84;92.05;18515.38;5111896;28;20231;-74
2022/10/16 02:44:48;;;;;;;1.70;1.13;;;14.30;99.90;;;-141.84;91.83;18480.84;5112134;28;20284;-75
2022/10/16 02:47:16;;;;;;;1.50;1.40;;;14.30;99.90;;;-141.84;91.73;18482.88;5111139;28;20195;-75
2022/10/16 02:49:44;;;;;;;3.05;1.40;;;14.30;99.90;;;-141.84;91.79;18488.97;5111982;28;20555;-74
2022/10/16 02:52:12;;;;;;;1.35;1.25;;;14.30;99.90;;;-141.84;91.68;18462.56;5111379;28;20281;-73
2022/10/16 02:54:40;;;;;;;1.38;1.20;;;14.30;99.90;;;-141.84;91.71;18493.03;5111317;28;20227;-74
2022/10/16 02:57:09;;;;;;;1.70;1.30;;;14.30;99.90;;;-141.84;91.54;18493.03;5111603;28;20254;-74
2022/10/16 02:59:37;;;;;;;1.48;1.10;;;14.30;99.90;;;-141.84;91.36;18480.84;5111456;28;20210;-74
2022/10/16 03:02:06;;;;;;;1.33;1.23;;;14.30;99.90;;;-141.84;91.24;18499.13;5112107;28;20202;-75
2022/10/16 03:04:34;;;;;;;2.05;1.58;;;14.30;99.90;;;-141.84;91.22;18460.53;5111388;28;20711;-74
2022/10/16 03:07:03;;;;;;;1.55;1.45;;;14.30;99.90;;;-141.84;91.35;18519.44;5111165;28;20226;-75
2022/10/16 03:09:31;;;;;;;3.20;1.48;;;14.30;99.90;;;-141.84;91.39;18495.06;5111426;28;20227;-76
2022/10/16 03:11:59;;;;;;;1.73;1.30;;;14.40;99.90;;;-141.84;91.38;18482.88;5111584;28;20273;-75
2022/10/16 03:14:27;;;;;;;1.98;1.38;;;14.30;99.90;;;-141.84;91.57;18444.28;5111436;28;20203;-75
2022/10/16 03:17:00;;;;;;;1.40;1.30;;;14.30;99.90;;;-141.84;91.90;18440.22;5111493;28;20626;-74
2022/10/16 03:19:30;;;;;;;3.90;1.42;;;14.20;99.90;;;-141.84;92.01;18452.41;5110512;28;20227;-73
2022/10/16 03:21:58;;;;;;;1.30;1.20;;;14.30;99.90;;;-141.84;92.27;18430.06;5111278;28;20579;-76
2022/10/16 03:24:26;;;;;;;2.78;1.33;;;14.20;99.90;;;-141.84;92.59;18436.16;5110792;28;20252;-75
2022/10/16 03:26:54;;;;;;;2.40;1.30;;;14.30;99.90;;;-141.84;92.69;18407.69;5111311;28;20219;-75
2022/10/16 03:29:22;;;;;;;1.58;1.40;;;14.20;99.90;;;-141.84;93.00;18425.97;5111247;28;20195;-74
2022/10/16 03:31:50;;;;;;;1.58;1.48;;;14.20;99.90;;;-141.84;93.06;18428.03;5111802;28;20221;-75
2022/10/16 03:34:18;;;;;;;1.67;1.40;;;14.20;99.90;;;-141.84;93.13;18436.16;5110804;28;20226;-74
2022/10/16 03:36:47;;;;;;;4.18;1.40;;;14.20;99.90;;;-141.84;93.20;18375.19;5111161;28;20640;-77
2022/10/16 03:39:15;;;;;;;1.73;1.20;;;14.20;99.90;;;-141.84;93.33;18411.75;5111004;28;20227;-75
2022/10/16 03:41:43;;;;;;;1.50;1.40;;;14.20;99.90;;;-141.84;93.37;18411.75;5111263;28;20228;-74
2022/10/16 03:44:11;;;;;;;1.38;1.17;;;14.20;99.90;;;-141.84;93.63;18403.63;5111442;28;20667;-75
2022/10/16 03:46:39;;;;;;;1.40;1.30;;;14.20;99.90;;;-141.84;93.59;18415.81;5110953;28;20644;-73
2022/10/16 03:49:07;;;;;;;1.60;1.25;;;14.20;99.90;;;-141.84;93.54;18385.34;5110751;28;20284;-75
2022/10/16 03:51:37;;;;;;;1.50;1.20;;;14.30;99.90;;;-141.84;93.45;18389.41;5110909;28;20741;-73
2022/10/16 03:54:06;;;;;;;1.40;1.30;;;14.20;99.90;;;-141.84;93.47;18425.97;5110579;28;20713;-73
2022/10/16 03:56:34;;;;;;;1.50;1.40;;;14.30;99.90;;;-141.84;93.17;18409.72;5111017;28;20207;-74
2022/10/16 03:59:02;;;;;;;1.70;1.20;;;14.30;99.90;;;-141.84;93.35;18409.72;5111185;28;20288;-73
2022/10/16 04:01:30;;;;;;;1.73;1.40;;;14.20;99.90;;;-141.84;93.15;18411.75;5110720;28;20283;-74
2022/10/16 04:03:58;;;;;;;1.50;1.23;;;14.20;99.90;;;-141.84;93.06;18415.81;5110651;28;20226;-75
2022/10/16 04:06:26;;;;;;;1.60;1.40;;;14.30;99.90;;;-141.84;92.72;18423.94;5110734;28;20219;-75
2022/10/16 04:08:54;;;;;;;1.20;1.20;;;14.30;99.90;;;-141.84;92.58;18419.88;5110957;28;20567;-74
2022/10/16 04:11:24;;;;;;;1.80;1.70;;;14.30;99.90;;;-141.84;92.53;18405.66;5111180;28;20206;-73
2022/10/16 04:13:52;;;;;;;1.98;1.75;;;14.30;99.90;;;-141.84;92.17;18407.69;5111340;28;20235;-73
2022/10/16 04:16:20;;;;;;;2.25;1.40;;;14.30;99.90;;;-141.84;92.10;18387.38;5110949;28;20253;-73
2022/10/16 04:18:48;;;;;;;2.90;1.30;;;14.40;99.90;;;-141.84;92.08;18379.25;5110602;28;20288;-74
2022/10/16 04:21:16;;;;;;;1.35;1.25;;;14.30;99.90;;;-141.84;92.12;18387.38;5110489;28;20242;-75
2022/10/16 04:23:44;;;;;;;1.40;1.30;;;14.30;99.90;;;-141.84;91.97;18399.56;5110718;28;20227;-74
2022/10/16 04:26:12;;;;;;;2.35;1.50;;;14.40;99.90;;;-141.84;91.35;18407.69;5111040;28;20200;-75
2022/10/16 04:28:41;;;;;;;1.48;1.38;;;14.40;99.90;;;-141.84;91.14;18358.94;5111330;28;20224;-76
2022/10/16 04:31:09;;;;;;;1.60;1.50;;;14.40;99.90;;;-141.84;91.18;18342.69;5111675;28;20261;-73
2022/10/16 04:33:37;;;;;;;1.45;1.35;;;14.30;99.90;;;-141.84;91.32;18395.50;5115353;28;20227;-74
2022/10/16 04:36:06;;;;;;;1.55;1.35;;;14.30;99.90;;;-141.84;91.33;18383.31;5114575;28;20654;-73
2022/10/16 04:38:34;;;;;;;3.28;1.60;;;14.30;99.90;;;-141.84;91.01;18430.06;5114768;28;20222;-74
2022/10/16 04:41:02;;;;;;;1.58;1.48;;;14.30;99.90;;;-141.84;90.18;18365.03;5115685;28;20237;-73
2022/10/16 04:43:30;;;;;;;5.32;1.80;;;14.30;99.90;;;-141.84;90.68;18375.19;5114607;28;20223;-74
2022/10/16 04:46:01;;;;;;;1.85;1.45;;;14.30;99.90;;;-141.84;91.10;18342.69;5114665;27;20818;-73
2022/10/16 04:48:29;;;;;;;1.73;1.42;;;14.30;99.90;;;-141.84;91.35;18411.75;5114394;28;20222;-74
2022/10/16 04:50:57;;;;;;;1.75;1.63;;;14.30;99.90;;;-141.84;91.02;18397.53;5114436;28;20230;-76
2022/10/16 04:53:25;;;;;;;1.50;1.40;;;14.30;99.90;;;-141.84;90.88;18363.00;5114329;28;20200;-75
2022/10/16 04:55:53;;;;;;;1.42;1.33;;;14.30;99.90;;;-141.84;91.08;18356.91;5115409;28;20698;-74
2022/10/16 04:58:21;;;;;;;2.58;1.50;;;14.30;99.90;;;-141.84;91.30;18369.09;5114328;28;20601;-74
2022/10/16 05:00:49;;;;;;;2.03;1.52;;;14.30;99.90;;;-141.84;91.06;18363.00;5114325;28;20650;-74
2022/10/16 05:03:19;;;;;;;4.75;1.67;;;14.30;99.90;;;-141.84;90.55;18354.88;5114130;28;20226;-76
2022/10/16 05:05:48;;;;;;;1.50;1.40;;;14.40;99.90;;;-141.84;90.66;18371.13;5114173;28;20228;-73
2022/10/16 05:08:17;;;;;;;1.55;1.45;;;14.40;99.90;;;-141.84;90.69;18350.81;5114496;28;20690;-73
2022/10/16 05:10:46;;;;;;;1.48;1.38;;;14.40;99.90;;;-141.84;90.88;18395.50;5114298;28;20215;-74
2022/10/16 05:13:14;;;;;;;1.50;1.40;;;14.30;99.90;;;-141.84;91.08;18348.78;5114145;28;20222;-75
2022/10/16 05:15:42;;;;;;;1.92;1.50;;;14.30;99.90;;;-141.84;91.14;18395.50;5114065;28;20654;-75
2022/10/16 05:18:10;;;;;;;2.65;1.50;;;14.30;99.90;;;-141.84;90.87;18348.78;5113842;28;20231;-75
2022/10/16 05:20:39;;;;;;;2.33;1.58;;;14.30;99.90;;;-141.84;90.87;18334.56;5113943;28;20199;-73
2022/10/16 05:23:09;;;;;;;1.98;1.35;;;14.30;99.90;;;-141.84;90.87;18369.09;5114653;28;20233;-73
2022/10/16 05:25:38;;;;;;;3.53;1.55;;;14.30;99.90;;;-141.84;90.90;18375.19;5113413;28;20230;-74
2022/10/16 05:28:06;;;;;;;2.60;1.50;;;14.40;99.90;;;-141.84;90.94;18377.22;5114161;28;20227;-75
2022/10/16 05:30:34;;;;;;;1.60;1.50;;;14.30;99.90;;;-141.84;90.69;18312.22;5113863;27;20219;-72
2022/10/16 05:33:02;;;;;;;1.83;1.30;;;14.30;99.90;;;-141.84;90.75;18320.34;5114093;28;20223;-74
2022/10/16 05:35:30;;;;;;;1.60;1.50;;;14.30;99.90;;;-141.84;90.74;18340.66;5113612;28;20618;-74
2022/10/16 05:37:59;;;;;;;1.70;1.60;;;14.30;99.90;;;-141.84;90.86;18318.31;5114628;28;20293;-76
2022/10/16 05:40:28;;;;;;;1.63;1.40;;;14.20;99.90;;;-141.84;90.67;18324.41;5113606;27;20242;-73
2022/10/16 05:42:56;;;;;;;1.58;1.45;;;14.30;99.90;;;-141.84;90.73;18379.25;5113675;28;20252;-73
2022/10/16 05:45:24;;;;;;;2.67;1.60;;;14.20;99.90;;;-141.84;90.55;18367.06;5113619;28;20219;-73
2022/10/16 05:47:53;;;;;;;1.80;1.60;;;14.20;99.90;;;-141.84;90.19;18344.72;5113793;28;20231;-73
2022/10/16 05:50:21;;;;;;;1.55;1.45;;;14.30;99.90;;;-141.84;90.05;18326.44;5113609;27;20273;-74
2022/10/16 05:52:49;;;;;;;1.83;1.73;;;14.30;99.90;;;-141.84;89.67;18350.81;5114074;28;20196;-76
2022/10/16 05:55:18;;;;;;;3.80;1.55;;;14.40;99.90;;;-141.84;89.25;18363.00;5113317;28;20717;-75
2022/10/16 05:57:46;;;;;;;1.55;1.45;;;14.40;99.90;;;-141.84;89.00;18350.81;5113532;28;20234;-74
2022/10/16 06:00:14;;;;;;;2.80;1.50;;;14.50;99.90;;;-141.84;88.88;18387.38;5113885;28;20235;-75
2022/10/16 06:02:42;;;;;;;2.40;1.80;;;14.50;99.90;;;-141.84;88.21;18369.09;5112591;28;20219;-74
2022/10/16 06:05:10;;;;;;;2.83;1.90;;;14.60;99.90;;;-141.84;87.86;18381.28;5113197;28;20557;-73
2022/10/16 06:07:38;;;;;;;2.20;1.70;;;14.60;99.90;;;-141.84;86.98;18391.44;5112508;28;20872;-75
2022/10/16 06:10:08;;;;;;;2.67;1.65;;;14.70;99.90;;;-141.84;84.69;18413.78;5113109;28;20227;-73
2022/10/16 06:12:38;;;;;;;2.50;1.70;;;14.80;99.90;;;-141.84;84.02;18452.41;5112895;28;20219;-75
2022/10/16 06:15:07;;;;;;;2.65;1.45;;;14.90;99.90;;;-141.84;84.24;18454.44;5112697;28;20219;-74
2022/10/16 06:17:35;;;;;;;1.65;1.55;;;14.90;99.90;;;-141.84;84.49;18448.34;5112273;28;20747;-76
2022/10/16 06:20:03;;;;;;;1.70;1.60;;;15.00;99.90;;;-141.84;84.30;18476.78;5112750;28;20246;-74
2022/10/16 06:22:31;;;;;;;1.42;1.33;;;15.00;99.90;;;-141.84;84.27;18460.53;5111781;28;20230;-75
2022/10/16 06:24:59;;;;;;;1.63;1.48;;;15.20;99.90;;;-141.84;83.88;18525.53;5112026;27;20223;-74
2022/10/16 06:27:27;;;;;;;1.55;1.45;;;15.20;99.90;;;-141.84;83.59;18501.16;5112026;28;20227;-76
2022/10/16 06:29:57;;;;;;;1.70;1.60;;;15.30;99.90;;;-141.84;83.13;18545.84;5112449;28;20606;-77
2022/10/16 06:32:25;;;;;;;2.63;1.60;;;15.30;99.90;;;-141.84;82.67;18515.38;5112379;28;20226;-76
2022/10/16 06:34:53;;;;;;;1.65;1.55;;;15.30;99.90;;;-141.84;82.23;18549.91;5112543;28;20602;-78
2022/10/16 06:37:21;;;;;;;1.83;1.42;;;15.30;99.90;;;-141.84;81.93;18541.78;5111757;28;20585;-75
2022/10/16 06:39:49;;;;;;;1.55;1.45;;;15.40;99.90;;;-141.84;81.29;18547.88;5112041;28;20251;-74
2022/10/16 06:42:17;;;;;;;1.58;1.48;;;15.40;99.90;;;-141.84;80.86;18614.94;5111690;27;20284;-74
2022/10/16 06:44:45;;;;;;;1.95;1.50;;;15.40;99.90;;;-141.84;80.60;18604.78;5111672;28;20238;-75
2022/10/16 06:47:15;;;;;;;1.88;1.60;;;15.40;99.90;;;-141.84;80.23;18606.81;5111673;28;20199;-74
2022/10/16 06:49:43;;;;;;;2.13;1.50;;;15.50;99.90;;;-141.84;80.55;18608.84;5111740;28;20595;-74
2022/10/16 06:52:11;;;;;;;3.42;2.03;;;15.50;99.90;;;-141.84;80.01;18631.19;5111396;28;20222;-73
2022/10/16 06:54:39;;;;;;;2.45;1.55;;;15.50;99.90;;;-141.84;79.34;18627.13;5111181;28;20234;-74
2022/10/16 06:57:09;;;;;;;1.85;1.50;;;15.60;99.90;;;-141.84;79.03;18612.91;5111491;28;20783;-74
2022/10/16 06:59:37;;;;;;;2.65;1.50;;;15.60;99.90;;;-141.84;79.72;18627.13;5111375;28;20252;-74
2022/10/16 07:02:06;;;;;;;1.73;1.50;;;15.70;99.90;;;-141.84;79.66;18688.06;5111679;28;20211;-76
2022/10/16 07:04:37;;;;;;;3.00;1.60;;;15.60;99.90;;;-141.84;79.79;18649.47;5111581;28;20234;-74
2022/10/16 07:07:05;;;;;;;2.85;1.63;;;15.70;99.90;;;-141.84;79.88;18671.81;5111243;28;20219;-75
2022/10/16 07:09:36;;;;;;;1.40;1.30;;;15.70;99.90;;;-141.84;80.29;18677.91;5111588;28;20306;-73
2022/10/16 07:12:05;;;;;;;2.35;1.30;;;15.70;99.90;;;-141.84;80.53;18647.44;5111620;28;20302;-74
2022/10/16 07:14:33;;;;;;;2.55;1.40;;;15.80;99.90;;;-141.84;80.46;18645.41;5112039;28;20222;-75
2022/10/16 07:17:01;;;;;;;2.97;1.70;;;15.80;99.90;;;-141.84;79.63;18692.13;5112720;28;20743;-75
2022/10/16 07:19:29;;;;;;;3.15;1.60;;;16.00;99.90;;;-141.84;79.07;18751.06;5111864;28;20235;-72
2022/10/16 07:22:02;;;;;;;2.55;1.48;;;16.10;99.90;;;-141.84;79.28;18698.22;5111818;28;20349;-72
2022/10/16 07:24:30;;;;;;;1.50;1.40;;;16.20;99.90;;;-141.84;78.89;18771.38;5111879;28;20231;-71
2022/10/16 07:26:58;;;;;;;2.58;1.42;;;16.30;99.90;;;-141.84;78.75;18773.41;5110954;28;20279;-71
2022/10/16 07:29:26;;;;;;;1.75;1.65;;;16.40;99.90;;;-141.84;77.62;18779.50;5109851;28;20607;-72
2022/10/16 07:31:55;;;;;;;2.70;2.00;;;16.40;99.90;;;-141.84;77.50;18840.47;5110373;28;20199;-71
2022/10/16 07:34:23;;;;;;;1.45;1.25;;;16.40;99.90;;;-141.84;76.23;18858.75;5110953;28;20714;-72
2022/10/16 07:36:51;;;;;;;4.15;1.58;;;16.50;99.90;;;-141.84;76.89;18846.56;5110375;28;20713;-71
2022/10/16 07:39:21;;;;;;;1.75;1.65;;;16.50;99.90;;;-141.84;76.77;18854.69;5111190;28;20746;-71
2022/10/16 07:41:49;;;;;;;1.50;1.40;;;16.40;99.90;;;-141.84;77.14;18826.25;5111354;28;20234;-71
2022/10/16 07:44:17;;;;;;;1.50;1.40;;;16.40;99.90;;;-141.84;77.67;18822.19;5111791;28;20200;-71
2022/10/16 07:46:45;;;;;;;3.28;1.48;;;16.50;99.90;;;-141.84;78.00;18852.66;5112188;28;20324;-72
2022/10/16 07:49:13;;;;;;;1.75;1.23;;;16.50;99.90;;;-141.84;77.18;18877.03;5110935;28;20284;-72
2022/10/16 07:51:41;;;;;;;1.30;1.20;;;16.60;99.90;;;-141.84;76.70;18881.09;5111421;28;20231;-73
2022/10/16 07:54:09;;;;;;;1.00;1.00;;;16.60;99.90;;;-141.84;75.35;18946.13;5111228;28;20238;-71
2022/10/16 07:56:39;;;;;;;2.20;1.30;;;16.70;99.90;;;-141.84;75.19;18952.22;5111198;28;20203;-72
2022/10/16 07:59:11;;;;;;;1.30;1.20;;;16.90;99.90;;;-141.84;73.37;19082.25;5111556;28;20651;-73
2022/10/16 08:01:39;;;;;;;5.28;1.23;;;17.10;99.90;;;-141.84;72.68;19037.56;5110954;28;20227;-71
2022/10/16 08:04:07;;;;;;;1.20;1.10;;;17.20;99.90;;;-141.84;71.29;19192.00;5111016;28;20223;-71
2022/10/16 08:06:38;;;;;;;2.42;1.27;;;17.40;99.90;;;-141.84;71.60;19157.44;5113703;28;20231;-71
2022/10/16 08:09:07;;;;;;;2.25;1.10;;;17.50;99.90;;;-141.84;71.69;19220.44;5115203;28;20219;-70
2022/10/16 08:11:35;;;;;;;1.60;1.00;;;17.60;99.90;;;-141.84;71.07;19273.28;5115085;27;20255;-70
2022/10/16 08:14:05;;;;;;;2.30;1.23;;;17.80;99.90;;;-141.84;68.41;19439.91;5115431;28;20203;-72
2022/10/16 08:16:33;;;;;;;2.95;1.02;;;18.20;99.90;;;-141.84;67.11;19590.28;5114824;28;20322;-73
2022/10/16 08:19:01;;;;;;;1.15;0.80;;;18.50;99.90;;;-141.84;65.77;19761.00;5114440;28;20226;-71
2022/10/16 08:21:29;;;;;;;1.02;1.00;;;18.70;99.90;;;-141.84;64.69;19895.13;5114100;28;20657;-72
2022/10/16 08:23:57;;;;;;;0.80;0.80;;;19.00;99.90;;;-141.84;62.93;20134.97;5114374;28;20227;-70
2022/10/16 08:26:27;;;;;;;3.58;1.10;;;19.40;99.90;;;-141.84;62.98;20224.41;5114087;28;20298;-70
2022/10/16 08:28:56;;;;;;;1.35;1.00;;;19.50;99.90;;;-141.84;62.84;20234.56;5114926;28;20218;-72
2022/10/16 08:31:27;;;;;;;2.83;0.80;;;19.40;99.90;;;-141.84;64.83;20074.00;5114276;28;20241;-73
2022/10/16 08:33:55;;;;;;;1.38;0.68;;;19.20;99.90;;;-141.84;64.83;20051.63;5114571;28;20227;-74
2022/10/16 08:36:23;;;;;;;0.70;0.70;;;19.10;99.90;;;-141.84;65.14;20021.16;5114717;27;20223;-71
2022/10/16 08:38:54;;;;;;;0.60;0.60;;;19.00;99.90;;;-141.84;65.60;19919.53;5114443;28;20598;-71
2022/10/16 08:42:09;;;;;;;0.55;0.55;;;18.90;99.90;;;-141.84;65.14;20006.91;5114866;28;20261;-70
2022/10/16 08:45:14;;;;;;;0.77;0.68;;;19.00;99.90;;;-141.84;65.30;19994.72;5107917;28;20195;-70
2022/10/16 08:47:55;;;;;;;0.77;0.70;;;18.90;99.90;;;-141.84;64.13;20128.88;5114379;28;20219;-70
2022/10/16 08:50:27;;;;;;;0.77;0.77;;;19.20;99.90;;;-141.84;63.85;20206.09;5114530;28;20179;-70
2022/10/16 08:52:56;;;;;;;0.68;0.68;;;19.20;99.90;;;-141.84;64.14;20122.78;5114882;28;20187;-72
2022/10/16 08:55:34;;;;;;;1.00;0.60;;;19.20;99.90;;;-141.84;65.37;20015.03;5114127;28;20228;-71
2022/10/16 08:58:03;;;;;;;1.45;0.73;;;19.10;99.90;;;-141.84;65.30;20006.91;5114194;27;20222;-71
2022/10/16 09:00:31;;;;;;;2.42;0.70;;;19.10;99.90;;;-141.84;65.35;20008.94;5114077;28;20223;-72
2022/10/16 09:03:18;;;;;;;0.75;0.70;;;19.10;99.90;;;-141.84;64.48;20098.38;5113280;28;20650;-72
2022/10/16 09:06:19;;;;;;;0.70;0.70;;;19.30;99.90;;;-141.84;64.53;20155.28;5113894;28;20223;-70
2022/10/16 09:09:07;;;;;;;1.65;0.80;;;19.40;99.90;;;-141.84;64.18;20193.91;5096159;27;20218;-73
2022/10/16 09:11:52;;;;;;;1.00;0.60;;;19.50;99.90;;;-141.84;62.86;20380.91;5114029;28;20191;-70
2022/10/16 09:14:45;;;;;;;0.60;0.50;;;19.90;99.90;;;-141.84;58.72;20756.97;5114215;28;20184;-71
2022/10/16 09:17:38;;;;;;;0.50;0.50;;;20.20;99.90;;;-141.84;59.61;20742.75;5114001;28;20191;-70
2022/10/16 09:20:27;;;;;;;1.73;0.50;;;20.40;99.90;;;-141.84;59.36;20746.81;5114010;28;20637;-71
2022/10/16 09:23:14;;;;;;;0.57;0.52;;;20.30;99.90;;;-141.84;61.38;20588.25;5113865;28;20686;-70
2022/10/16 09:25:47;;;;;;;1.30;0.60;;;20.10;99.90;;;-141.84;61.70;20574.00;5113987;28;20275;-73
2022/10/16 09:28:17;;;;;;;0.95;0.60;;;20.00;99.90;;;-141.84;61.53;20545.56;5113747;28;20227;-70
2022/10/16 09:30:48;;;;;;;0.60;0.60;;;19.80;99.90;;;-141.84;61.50;20551.66;5113274;28;20226;-72
2022/10/16 09:33:19;;;;;;;1.50;0.68;;;19.90;99.90;;;-141.84;61.62;20533.34;5113567;27;20276;-74
2022/10/16 09:35:52;;;;;;;0.70;0.70;;;19.80;99.90;;;-141.84;62.65;20492.72;5113269;28;20215;-72
2022/10/16 09:38:27;;;;;;;0.50;0.45;;;19.70;99.90;;;-141.84;62.71;20468.31;5113336;28;20184;-72
2022/10/16 09:40:58;;;;;;;0.65;0.65;;;19.80;99.90;;;-141.84;61.98;20500.84;5113535;28;20570;-71
2022/10/16 09:43:40;;;;;;;0.70;0.63;;;19.70;99.90;;;-141.84;62.02;20539.47;5113511;28;20226;-71
2022/10/16 09:46:23;;;;;;;0.50;0.50;;;19.90;99.90;;;-141.84;61.20;20655.31;5113385;28;20249;-71
2022/10/16 09:48:56;;;;;;;0.70;0.65;;;20.10;99.90;;;-141.84;59.93;20761.03;5114052;28;20219;-73
2022/10/16 09:51:29;;;;;;;0.82;0.60;;;20.30;99.90;;;-141.84;59.17;20852.50;5113541;28;20231;-71
2022/10/16 09:54:00;;;;;;;0.90;0.90;;;20.50;99.90;;;-141.84;59.56;20803.72;5113186;28;20571;-71
2022/10/16 09:56:32;;;;;;;2.10;1.00;;;20.60;99.90;;;-141.84;60.16;20795.59;5112958;28;20207;-72
2022/10/16 09:59:04;;;;;;;1.33;0.93;;;20.50;99.90;;;-141.84;58.28;20929.75;5114213;28;20207;-71
2022/10/16 10:01:38;;;;;;;1.25;1.15;;;20.70;99.90;;;-141.84;58.30;20911.47;5110650;27;20573;-67
2022/10/16 10:04:08;;;;;;;0.98;0.98;;;20.70;99.90;;;-141.84;58.66;20897.25;5112819;27;20634;-68
2022/10/16 10:06:44;;;;;;;1.38;1.27;;;20.70;99.90;;;-141.84;59.80;20842.34;5111347;27;20234;-68
2022/10/16 10:09:23;;;;;;;1.55;1.13;;;20.50;99.90;;;-141.84;60.26;20803.72;5112662;28;20755;-69
2022/10/16 10:11:55;;;;;;;1.45;1.10;;;20.30;99.90;;;-141.84;59.93;20809.81;5111281;28;20249;-66
2022/10/16 10:14:38;;;;;;;1.08;1.05;;;20.30;99.90;;;-141.84;60.54;20777.28;5112624;28;20184;-68
2022/10/16 10:17:16;;;;;;;0.70;0.70;;;20.20;99.90;;;-141.84;58.69;20887.06;5111576;28;20211;-69
2022/10/16 10:19:50;;;;;;;2.78;0.80;;;20.50;99.90;;;-141.84;58.69;20897.25;5112224;28;20203;-68
2022/10/16 10:22:30;;;;;;;0.82;0.82;;;20.60;99.90;;;-141.84;58.25;20954.16;5111964;27;20227;-68